sensor_id;sensor_type;location;lat;lon;timestamp;P1;durP1;ratioP1;P2;durP2;ratioP2
55065;SDS011;40964;42.114;24.220;2023-02-01T00:01:21;6.18;;;1.67;;
55065;SDS011;40964;42.114;24.220;2023-02-01T00:03:47;2.78;;;1.70;;
55065;SDS011;40964;42.114;24.220;2023-02-01T00:06:12;4.30;;;1.33;;
55065;SDS011;40964;42.114;24.220;2023-02-01T00:08:38;1.38;;;0.88;;
55065;SDS011;40964;42.114;24.220;2023-02-01T00:11:07;1.23;;;1.13;;
55065;SDS011;40964;42.114;24.220;2023-02-01T00:13:35;1.30;;;1.13;;
55065;SDS011;40964;42.114;24.220;2023-02-01T00:16:10;0.70;;;0.70;;
55065;SDS011;40964;42.114;24.220;2023-02-01T00:18:37;1.17;;;0.90;;
55065;SDS011;40964;42.114;24.220;2023-02-01T00:21:03;3.60;;;1.30;;
55065;SDS011;40964;42.114;24.220;2023-02-01T00:23:33;2.72;;;1.40;;
55065;SDS011;40964;42.114;24.220;2023-02-01T00:26:06;1.60;;;1.30;;
55065;SDS011;40964;42.114;24.220;2023-02-01T00:28:36;3.08;;;1.30;;
55065;SDS011;40964;42.114;24.220;2023-02-01T00:31:02;1.70;;;1.20;;
55065;SDS011;40964;42.114;24.220;2023-02-01T00:33:29;1.20;;;1.10;;
55065;SDS011;40964;42.114;24.220;2023-02-01T00:35:59;2.83;;;1.60;;
55065;SDS011;40964;42.114;24.220;2023-02-01T00:38:26;6.60;;;1.70;;
55065;SDS011;40964;42.114;24.220;2023-02-01T00:40:53;2.03;;;1.23;;
55065;SDS011;40964;42.114;24.220;2023-02-01T00:43:19;2.08;;;1.35;;
55065;SDS011;40964;42.114;24.220;2023-02-01T00:45:45;2.65;;;1.40;;
55065;SDS011;40964;42.114;24.220;2023-02-01T00:48:11;1.48;;;1.05;;
55065;SDS011;40964;42.114;24.220;2023-02-01T00:50:40;1.52;;;0.93;;
55065;SDS011;40964;42.114;24.220;2023-02-01T00:53:07;3.30;;;1.42;;
55065;SDS011;40964;42.114;24.220;2023-02-01T00:55:33;2.08;;;1.10;;
55065;SDS011;40964;42.114;24.220;2023-02-01T00:57:59;2.17;;;1.35;;
55065;SDS011;40964;42.114;24.220;2023-02-01T01:00:24;1.35;;;1.15;;
55065;SDS011;40964;42.114;24.220;2023-02-01T01:02:50;1.02;;;0.90;;
55065;SDS011;40964;42.114;24.220;2023-02-01T01:05:17;3.75;;;1.05;;
55065;SDS011;40964;42.114;24.220;2023-02-01T01:07:42;2.25;;;1.67;;
55065;SDS011;40964;42.114;24.220;2023-02-01T01:10:08;0.98;;;0.82;;
55065;SDS011;40964;42.114;24.220;2023-02-01T01:12:33;0.90;;;0.90;;
55065;SDS011;40964;42.114;24.220;2023-02-01T01:14:59;1.42;;;1.15;;
55065;SDS011;40964;42.114;24.220;2023-02-01T01:17:24;2.97;;;1.42;;
55065;SDS011;40964;42.114;24.220;2023-02-01T01:19:50;1.60;;;1.15;;
55065;SDS011;40964;42.114;24.220;2023-02-01T01:22:15;1.75;;;1.25;;
55065;SDS011;40964;42.114;24.220;2023-02-01T01:24:41;3.38;;;1.60;;
55065;SDS011;40964;42.114;24.220;2023-02-01T01:27:06;1.30;;;1.15;;
55065;SDS011;40964;42.114;24.220;2023-02-01T01:29:31;1.88;;;1.70;;
55065;SDS011;40964;42.114;24.220;2023-02-01T01:31:57;2.53;;;1.48;;
55065;SDS011;40964;42.114;24.220;2023-02-01T01:34:22;4.03;;;2.03;;
55065;SDS011;40964;42.114;24.220;2023-02-01T01:36:51;1.85;;;1.02;;
55065;SDS011;40964;42.114;24.220;2023-02-01T01:39:16;1.48;;;1.38;;
55065;SDS011;40964;42.114;24.220;2023-02-01T01:41:41;4.47;;;1.38;;
55065;SDS011;40964;42.114;24.220;2023-02-01T01:44:53;2.10;;;1.50;;
55065;SDS011;40964;42.114;24.220;2023-02-01T01:47:11;3.42;;;1.50;;
55065;SDS011;40964;42.114;24.220;2023-02-01T01:49:37;3.25;;;1.48;;
55065;SDS011;40964;42.114;24.220;2023-02-01T01:52:03;7.93;;;3.78;;
55065;SDS011;40964;42.114;24.220;2023-02-01T01:54:30;2.40;;;1.55;;
55065;SDS011;40964;42.114;24.220;2023-02-01T01:57:42;2.75;;;1.58;;
55065;SDS011;40964;42.114;24.220;2023-02-01T02:00:08;2.25;;;1.60;;
55065;SDS011;40964;42.114;24.220;2023-02-01T02:02:39;2.35;;;1.77;;
55065;SDS011;40964;42.114;24.220;2023-02-01T02:05:10;2.42;;;1.60;;
55065;SDS011;40964;42.114;24.220;2023-02-01T02:07:39;1.60;;;1.50;;
55065;SDS011;40964;42.114;24.220;2023-02-01T02:10:08;4.93;;;1.85;;
55065;SDS011;40964;42.114;24.220;2023-02-01T02:12:41;4.50;;;2.45;;
55065;SDS011;40964;42.114;24.220;2023-02-01T02:15:09;3.05;;;2.38;;
55065;SDS011;40964;42.114;24.220;2023-02-01T02:17:40;5.35;;;2.40;;
55065;SDS011;40964;42.114;24.220;2023-02-01T02:34:06;3.55;;;1.92;;
55065;SDS011;40964;42.114;24.220;2023-02-01T02:42:36;3.42;;;2.00;;
55065;SDS011;40964;42.114;24.220;2023-02-01T02:46:35;5.88;;;2.05;;
55065;SDS011;40964;42.114;24.220;2023-02-01T02:51:45;2.17;;;1.75;;
55065;SDS011;40964;42.114;24.220;2023-02-01T02:54:31;5.10;;;2.22;;
55065;SDS011;40964;42.114;24.220;2023-02-01T02:57:58;6.38;;;2.90;;
55065;SDS011;40964;42.114;24.220;2023-02-01T03:00:29;3.17;;;1.77;;
55065;SDS011;40964;42.114;24.220;2023-02-01T03:03:16;3.67;;;1.95;;
55065;SDS011;40964;42.114;24.220;2023-02-01T03:08:27;3.05;;;1.92;;
55065;SDS011;40964;42.114;24.220;2023-02-01T03:16:08;2.35;;;1.52;;
55065;SDS011;40964;42.114;24.220;2023-02-01T03:19:02;4.05;;;2.65;;
55065;SDS011;40964;42.114;24.220;2023-02-01T03:21:39;8.00;;;3.60;;
55065;SDS011;40964;42.114;24.220;2023-02-01T03:24:28;5.55;;;2.95;;
55065;SDS011;40964;42.114;24.220;2023-02-01T03:27:01;3.28;;;2.08;;
55065;SDS011;40964;42.114;24.220;2023-02-01T03:29:38;6.20;;;2.47;;
55065;SDS011;40964;42.114;24.220;2023-02-01T03:32:11;4.03;;;2.72;;
55065;SDS011;40964;42.114;24.220;2023-02-01T03:34:36;5.45;;;2.58;;
55065;SDS011;40964;42.114;24.220;2023-02-01T03:37:08;5.43;;;2.47;;
55065;SDS011;40964;42.114;24.220;2023-02-01T03:39:53;5.07;;;2.00;;
55065;SDS011;40964;42.114;24.220;2023-02-01T03:45:06;3.42;;;2.17;;
55065;SDS011;40964;42.114;24.220;2023-02-01T03:47:37;4.35;;;2.70;;
55065;SDS011;40964;42.114;24.220;2023-02-01T03:50:11;2.92;;;2.28;;
55065;SDS011;40964;42.114;24.220;2023-02-01T03:53:28;3.28;;;1.95;;
55065;SDS011;40964;42.114;24.220;2023-02-01T03:55:32;8.43;;;3.03;;
55065;SDS011;40964;42.114;24.220;2023-02-01T04:00:27;5.47;;;3.35;;
55065;SDS011;40964;42.114;24.220;2023-02-01T04:02:52;4.35;;;3.00;;
55065;SDS011;40964;42.114;24.220;2023-02-01T04:05:18;2.35;;;2.10;;
55065;SDS011;40964;42.114;24.220;2023-02-01T04:07:44;5.63;;;2.45;;
55065;SDS011;40964;42.114;24.220;2023-02-01T04:10:10;3.83;;;1.98;;
55065;SDS011;40964;42.114;24.220;2023-02-01T04:12:36;3.20;;;1.90;;
55065;SDS011;40964;42.114;24.220;2023-02-01T04:15:01;6.45;;;1.90;;
55065;SDS011;40964;42.114;24.220;2023-02-01T04:17:28;2.63;;;1.77;;
55065;SDS011;40964;42.114;24.220;2023-02-01T04:19:54;3.90;;;2.33;;
55065;SDS011;40964;42.114;24.220;2023-02-01T04:22:20;2.25;;;1.75;;
55065;SDS011;40964;42.114;24.220;2023-02-01T04:24:45;2.72;;;1.55;;
55065;SDS011;40964;42.114;24.220;2023-02-01T04:27:11;2.42;;;1.70;;
55065;SDS011;40964;42.114;24.220;2023-02-01T04:29:36;2.35;;;2.08;;
55065;SDS011;40964;42.114;24.220;2023-02-01T04:32:01;3.17;;;2.08;;
55065;SDS011;40964;42.114;24.220;2023-02-01T04:34:27;5.30;;;2.85;;
55065;SDS011;40964;42.114;24.220;2023-02-01T04:36:52;4.75;;;2.28;;
55065;SDS011;40964;42.114;24.220;2023-02-01T04:39:18;4.60;;;2.05;;
55065;SDS011;40964;42.114;24.220;2023-02-01T04:41:43;8.38;;;2.03;;
55065;SDS011;40964;42.114;24.220;2023-02-01T04:44:12;2.97;;;2.17;;
55065;SDS011;40964;42.114;24.220;2023-02-01T04:46:39;8.23;;;4.18;;
55065;SDS011;40964;42.114;24.220;2023-02-01T04:49:05;4.75;;;3.10;;
55065;SDS011;40964;42.114;24.220;2023-02-01T04:51:30;7.35;;;4.13;;
55065;SDS011;40964;42.114;24.220;2023-02-01T04:53:56;5.75;;;3.10;;
55065;SDS011;40964;42.114;24.220;2023-02-01T04:56:22;5.38;;;2.92;;
55065;SDS011;40964;42.114;24.220;2023-02-01T04:58:47;5.03;;;3.00;;
55065;SDS011;40964;42.114;24.220;2023-02-01T05:01:13;11.13;;;5.40;;
55065;SDS011;40964;42.114;24.220;2023-02-01T05:03:38;8.35;;;4.30;;
55065;SDS011;40964;42.114;24.220;2023-02-01T05:06:04;13.60;;;4.57;;
55065;SDS011;40964;42.114;24.220;2023-02-01T05:08:29;8.75;;;4.43;;
55065;SDS011;40964;42.114;24.220;2023-02-01T05:10:56;8.77;;;4.10;;
55065;SDS011;40964;42.114;24.220;2023-02-01T05:13:21;17.60;;;5.85;;
55065;SDS011;40964;42.114;24.220;2023-02-01T05:16:06;13.00;;;6.05;;
55065;SDS011;40964;42.114;24.220;2023-02-01T05:18:32;14.85;;;5.85;;
55065;SDS011;40964;42.114;24.220;2023-02-01T05:20:57;21.92;;;7.35;;
55065;SDS011;40964;42.114;24.220;2023-02-01T05:23:23;46.47;;;14.60;;
55065;SDS011;40964;42.114;24.220;2023-02-01T05:25:48;39.80;;;13.35;;
55065;SDS011;40964;42.114;24.220;2023-02-01T05:28:14;20.48;;;7.68;;
55065;SDS011;40964;42.114;24.220;2023-02-01T05:30:39;17.05;;;6.55;;
55065;SDS011;40964;42.114;24.220;2023-02-01T05:33:04;19.10;;;8.43;;
55065;SDS011;40964;42.114;24.220;2023-02-01T05:35:30;6.55;;;3.30;;
55065;SDS011;40964;42.114;24.220;2023-02-01T05:37:55;5.90;;;3.70;;
55065;SDS011;40964;42.114;24.220;2023-02-01T05:40:21;8.13;;;4.40;;
55065;SDS011;40964;42.114;24.220;2023-02-01T05:42:47;3.55;;;2.78;;
55065;SDS011;40964;42.114;24.220;2023-02-01T05:45:13;11.82;;;5.40;;
55065;SDS011;40964;42.114;24.220;2023-02-01T05:47:38;8.98;;;4.28;;
55065;SDS011;40964;42.114;24.220;2023-02-01T05:50:04;7.25;;;3.80;;
55065;SDS011;40964;42.114;24.220;2023-02-01T05:52:30;5.47;;;2.92;;
55065;SDS011;40964;42.114;24.220;2023-02-01T05:54:56;8.43;;;3.22;;
55065;SDS011;40964;42.114;24.220;2023-02-01T05:57:21;2.03;;;1.70;;
55065;SDS011;40964;42.114;24.220;2023-02-01T05:59:46;4.03;;;2.38;;
55065;SDS011;40964;42.114;24.220;2023-02-01T06:02:13;5.35;;;2.63;;
55065;SDS011;40964;42.114;24.220;2023-02-01T06:04:39;9.68;;;4.15;;
55065;SDS011;40964;42.114;24.220;2023-02-01T06:07:05;5.38;;;3.40;;
55065;SDS011;40964;42.114;24.220;2023-02-01T06:09:33;6.25;;;3.60;;
55065;SDS011;40964;42.114;24.220;2023-02-01T06:11:59;11.10;;;4.80;;
55065;SDS011;40964;42.114;24.220;2023-02-01T06:14:26;13.77;;;6.50;;
55065;SDS011;40964;42.114;24.220;2023-02-01T06:16:52;14.82;;;6.68;;
55065;SDS011;40964;42.114;24.220;2023-02-01T06:19:18;7.45;;;4.00;;
55065;SDS011;40964;42.114;24.220;2023-02-01T06:21:44;8.48;;;3.45;;
55065;SDS011;40964;42.114;24.220;2023-02-01T06:24:09;8.18;;;3.63;;
55065;SDS011;40964;42.114;24.220;2023-02-01T06:26:35;9.35;;;4.05;;
55065;SDS011;40964;42.114;24.220;2023-02-01T06:29:01;3.28;;;2.00;;
55065;SDS011;40964;42.114;24.220;2023-02-01T06:31:26;0.88;;;0.88;;
55065;SDS011;40964;42.114;24.220;2023-02-01T06:33:52;2.63;;;1.95;;
55065;SDS011;40964;42.114;24.220;2023-02-01T06:36:18;7.93;;;3.28;;
55065;SDS011;40964;42.114;24.220;2023-02-01T06:38:46;18.73;;;6.38;;
55065;SDS011;40964;42.114;24.220;2023-02-01T06:41:13;9.90;;;5.20;;
55065;SDS011;40964;42.114;24.220;2023-02-01T06:43:39;7.93;;;4.10;;
55065;SDS011;40964;42.114;24.220;2023-02-01T06:46:06;2.28;;;1.60;;
55065;SDS011;40964;42.114;24.220;2023-02-01T06:48:33;3.33;;;1.90;;
55065;SDS011;40964;42.114;24.220;2023-02-01T06:50:59;3.88;;;2.30;;
55065;SDS011;40964;42.114;24.220;2023-02-01T06:53:24;3.97;;;1.77;;
55065;SDS011;40964;42.114;24.220;2023-02-01T06:56:01;4.00;;;2.30;;
55065;SDS011;40964;42.114;24.220;2023-02-01T06:58:28;4.97;;;2.88;;
55065;SDS011;40964;42.114;24.220;2023-02-01T07:00:57;4.47;;;2.58;;
55065;SDS011;40964;42.114;24.220;2023-02-01T07:03:23;4.47;;;2.67;;
55065;SDS011;40964;42.114;24.220;2023-02-01T07:05:49;4.88;;;2.67;;
55065;SDS011;40964;42.114;24.220;2023-02-01T07:08:14;6.00;;;2.50;;
55065;SDS011;40964;42.114;24.220;2023-02-01T07:10:40;3.88;;;2.35;;
55065;SDS011;40964;42.114;24.220;2023-02-01T07:13:05;7.05;;;3.03;;
55065;SDS011;40964;42.114;24.220;2023-02-01T07:15:31;19.13;;;6.00;;
55065;SDS011;40964;42.114;24.220;2023-02-01T07:17:57;10.48;;;4.65;;
55065;SDS011;40964;42.114;24.220;2023-02-01T07:20:22;9.65;;;5.25;;
55065;SDS011;40964;42.114;24.220;2023-02-01T07:22:48;22.02;;;6.78;;
55065;SDS011;40964;42.114;24.220;2023-02-01T07:25:13;14.40;;;6.50;;
55065;SDS011;40964;42.114;24.220;2023-02-01T07:27:39;11.00;;;5.40;;
55065;SDS011;40964;42.114;24.220;2023-02-01T07:30:05;14.15;;;4.95;;
55065;SDS011;40964;42.114;24.220;2023-02-01T07:32:31;22.88;;;9.05;;
55065;SDS011;40964;42.114;24.220;2023-02-01T07:34:57;7.57;;;3.42;;
55065;SDS011;40964;42.114;24.220;2023-02-01T07:37:23;6.43;;;3.38;;
55065;SDS011;40964;42.114;24.220;2023-02-01T07:39:49;8.73;;;2.90;;
55065;SDS011;40964;42.114;24.220;2023-02-01T07:42:15;11.85;;;4.97;;
55065;SDS011;40964;42.114;24.220;2023-02-01T07:44:41;8.45;;;4.28;;
55065;SDS011;40964;42.114;24.220;2023-02-01T07:47:06;3.95;;;1.95;;
55065;SDS011;40964;42.114;24.220;2023-02-01T07:49:32;10.80;;;4.10;;
55065;SDS011;40964;42.114;24.220;2023-02-01T07:51:57;7.38;;;3.40;;
55065;SDS011;40964;42.114;24.220;2023-02-01T07:54:22;4.25;;;2.60;;
55065;SDS011;40964;42.114;24.220;2023-02-01T07:56:48;6.78;;;3.55;;
55065;SDS011;40964;42.114;24.220;2023-02-01T07:59:13;7.72;;;3.08;;
55065;SDS011;40964;42.114;24.220;2023-02-01T08:01:40;5.00;;;2.88;;
55065;SDS011;40964;42.114;24.220;2023-02-01T08:04:05;4.20;;;2.35;;
55065;SDS011;40964;42.114;24.220;2023-02-01T08:06:32;7.68;;;4.28;;
55065;SDS011;40964;42.114;24.220;2023-02-01T08:08:59;3.70;;;2.35;;
55065;SDS011;40964;42.114;24.220;2023-02-01T08:11:25;5.20;;;2.50;;
55065;SDS011;40964;42.114;24.220;2023-02-01T08:13:51;4.03;;;2.40;;
55065;SDS011;40964;42.114;24.220;2023-02-01T08:16:18;4.40;;;2.92;;
55065;SDS011;40964;42.114;24.220;2023-02-01T08:18:44;5.47;;;2.40;;
55065;SDS011;40964;42.114;24.220;2023-02-01T08:21:14;5.82;;;3.03;;
55065;SDS011;40964;42.114;24.220;2023-02-01T08:23:44;4.47;;;2.58;;
55065;SDS011;40964;42.114;24.220;2023-02-01T08:26:14;3.47;;;2.30;;
55065;SDS011;40964;42.114;24.220;2023-02-01T08:28:43;2.88;;;2.13;;
55065;SDS011;40964;42.114;24.220;2023-02-01T08:31:12;6.22;;;3.00;;
55065;SDS011;40964;42.114;24.220;2023-02-01T08:33:39;8.70;;;3.17;;
55065;SDS011;40964;42.114;24.220;2023-02-01T08:36:06;5.57;;;2.35;;
55065;SDS011;40964;42.114;24.220;2023-02-01T08:38:36;3.95;;;2.50;;
55065;SDS011;40964;42.114;24.220;2023-02-01T08:41:07;3.22;;;2.25;;
55065;SDS011;40964;42.114;24.220;2023-02-01T08:43:35;5.35;;;2.53;;
55065;SDS011;40964;42.114;24.220;2023-02-01T08:46:00;4.50;;;2.05;;
55065;SDS011;40964;42.114;24.220;2023-02-01T08:48:26;2.75;;;1.55;;
55065;SDS011;40964;42.114;24.220;2023-02-01T08:50:52;4.40;;;2.10;;
55065;SDS011;40964;42.114;24.220;2023-02-01T08:53:17;2.08;;;1.55;;
55065;SDS011;40964;42.114;24.220;2023-02-01T08:55:45;2.42;;;1.60;;
55065;SDS011;40964;42.114;24.220;2023-02-01T08:58:11;2.03;;;0.80;;
55065;SDS011;40964;42.114;24.220;2023-02-01T09:00:38;1.52;;;1.13;;
55065;SDS011;40964;42.114;24.220;2023-02-01T09:03:04;1.00;;;0.82;;
55065;SDS011;40964;42.114;24.220;2023-02-01T09:05:30;5.63;;;1.40;;
55065;SDS011;40964;42.114;24.220;2023-02-01T09:07:55;1.40;;;1.10;;
55065;SDS011;40964;42.114;24.220;2023-02-01T09:10:21;2.80;;;1.00;;
55065;SDS011;40964;42.114;24.220;2023-02-01T09:12:47;1.98;;;0.82;;
55065;SDS011;40964;42.114;24.220;2023-02-01T09:15:12;2.15;;;1.60;;
55065;SDS011;40964;42.114;24.220;2023-02-01T09:17:37;1.33;;;1.02;;
55065;SDS011;40964;42.114;24.220;2023-02-01T09:20:03;1.00;;;1.00;;
55065;SDS011;40964;42.114;24.220;2023-02-01T09:22:29;2.75;;;1.17;;
55065;SDS011;40964;42.114;24.220;2023-02-01T09:24:55;1.23;;;1.10;;
55065;SDS011;40964;42.114;24.220;2023-02-01T09:27:20;1.92;;;1.50;;
55065;SDS011;40964;42.114;24.220;2023-02-01T09:29:46;0.98;;;0.73;;
55065;SDS011;40964;42.114;24.220;2023-02-01T09:32:17;1.27;;;0.98;;
55065;SDS011;40964;42.114;24.220;2023-02-01T09:34:43;1.13;;;1.02;;
55065;SDS011;40964;42.114;24.220;2023-02-01T09:37:09;1.40;;;1.23;;
55065;SDS011;40964;42.114;24.220;2023-02-01T09:39:34;1.10;;;1.00;;
55065;SDS011;40964;42.114;24.220;2023-02-01T09:47:38;1.40;;;1.13;;
55065;SDS011;40964;42.114;24.220;2023-02-01T09:50:13;2.65;;;1.10;;
55065;SDS011;40964;42.114;24.220;2023-02-01T09:52:44;2.10;;;1.02;;
55065;SDS011;40964;42.114;24.220;2023-02-01T09:55:21;4.38;;;1.42;;
55065;SDS011;40964;42.114;24.220;2023-02-01T09:58:03;2.47;;;1.30;;
55065;SDS011;40964;42.114;24.220;2023-02-01T10:00:34;1.38;;;1.20;;
55065;SDS011;40964;42.114;24.220;2023-02-01T10:03:02;1.23;;;1.10;;
55065;SDS011;40964;42.114;24.220;2023-02-01T10:05:54;1.13;;;1.02;;
55065;SDS011;40964;42.114;24.220;2023-02-01T10:17:04;9.10;;;1.10;;
55065;SDS011;40964;42.114;24.220;2023-02-01T10:22:37;2.17;;;1.38;;
55065;SDS011;40964;42.114;24.220;2023-02-01T10:27:56;2.30;;;1.38;;
55065;SDS011;40964;42.114;24.220;2023-02-01T10:30:28;2.92;;;1.60;;
55065;SDS011;40964;42.114;24.220;2023-02-01T10:33:07;1.98;;;1.25;;
55065;SDS011;40964;42.114;24.220;2023-02-01T10:35:42;3.92;;;1.20;;
55065;SDS011;40964;42.114;24.220;2023-02-01T10:38:23;1.58;;;1.35;;
55065;SDS011;40964;42.114;24.220;2023-02-01T10:43:18;1.88;;;1.20;;
55065;SDS011;40964;42.114;24.220;2023-02-01T10:45:43;1.48;;;1.13;;
55065;SDS011;40964;42.114;24.220;2023-02-01T10:48:09;2.15;;;1.50;;
55065;SDS011;40964;42.114;24.220;2023-02-01T10:50:35;2.65;;;1.10;;
55065;SDS011;40964;42.114;24.220;2023-02-01T10:53:12;3.15;;;1.00;;
55065;SDS011;40964;42.114;24.220;2023-02-01T11:00:45;1.17;;;1.08;;
55065;SDS011;40964;42.114;24.220;2023-02-01T11:05:55;6.75;;;1.08;;
55065;SDS011;40964;42.114;24.220;2023-02-01T11:08:21;1.10;;;0.98;;
55065;SDS011;40964;42.114;24.220;2023-02-01T11:10:46;1.30;;;1.00;;
55065;SDS011;40964;42.114;24.220;2023-02-01T11:13:16;0.93;;;0.93;;
55065;SDS011;40964;42.114;24.220;2023-02-01T11:15:43;2.08;;;1.20;;
55065;SDS011;40964;42.114;24.220;2023-02-01T11:18:17;2.03;;;1.08;;
55065;SDS011;40964;42.114;24.220;2023-02-01T11:20:44;2.00;;;1.38;;
55065;SDS011;40964;42.114;24.220;2023-02-01T11:23:24;2.20;;;1.13;;
55065;SDS011;40964;42.114;24.220;2023-02-01T11:26:01;2.15;;;1.33;;
55065;SDS011;40964;42.114;24.220;2023-02-01T11:28:34;1.48;;;0.90;;
55065;SDS011;40964;42.114;24.220;2023-02-01T11:31:04;1.20;;;0.88;;
55065;SDS011;40964;42.114;24.220;2023-02-01T11:33:34;2.08;;;1.30;;
55065;SDS011;40964;42.114;24.220;2023-02-01T11:36:24;1.33;;;1.23;;
55065;SDS011;40964;42.114;24.220;2023-02-01T11:39:06;2.78;;;1.02;;
55065;SDS011;40964;42.114;24.220;2023-02-01T11:41:34;0.93;;;0.90;;
55065;SDS011;40964;42.114;24.220;2023-02-01T11:44:33;1.50;;;1.00;;
55065;SDS011;40964;42.114;24.220;2023-02-01T11:49:50;2.10;;;0.93;;
55065;SDS011;40964;42.114;24.220;2023-02-01T11:52:21;4.60;;;1.17;;
55065;SDS011;40964;42.114;24.220;2023-02-01T11:57:58;0.52;;;0.52;;
55065;SDS011;40964;42.114;24.220;2023-02-01T12:03:04;0.80;;;0.77;;
55065;SDS011;40964;42.114;24.220;2023-02-01T12:06:02;2.67;;;1.00;;
55065;SDS011;40964;42.114;24.220;2023-02-01T12:14:31;1.00;;;0.90;;
55065;SDS011;40964;42.114;24.220;2023-02-01T12:25:54;1.42;;;0.93;;
55065;SDS011;40964;42.114;24.220;2023-02-01T12:39:40;1.02;;;0.80;;
55065;SDS011;40964;42.114;24.220;2023-02-01T12:42:17;2.00;;;0.90;;
55065;SDS011;40964;42.114;24.220;2023-02-01T12:47:27;2.58;;;1.13;;
55065;SDS011;40964;42.114;24.220;2023-02-01T12:49:55;1.10;;;1.00;;
55065;SDS011;40964;42.114;24.220;2023-02-01T12:52:39;1.60;;;1.20;;
55065;SDS011;40964;42.114;24.220;2023-02-01T13:00:51;0.98;;;0.90;;
55065;SDS011;40964;42.114;24.220;2023-02-01T13:03:29;6.32;;;2.75;;
55065;SDS011;40964;42.114;24.220;2023-02-01T13:06:09;1.25;;;1.10;;
55065;SDS011;40964;42.114;24.220;2023-02-01T13:08:43;0.98;;;0.68;;
55065;SDS011;40964;42.114;24.220;2023-02-01T13:11:36;1.13;;;0.90;;
55065;SDS011;40964;42.114;24.220;2023-02-01T13:14:05;1.60;;;1.10;;
55065;SDS011;40964;42.114;24.220;2023-02-01T13:16:56;1.60;;;0.80;;
55065;SDS011;40964;42.114;24.220;2023-02-01T13:19:30;0.77;;;0.77;;
55065;SDS011;40964;42.114;24.220;2023-02-01T13:22:03;0.90;;;0.90;;
55065;SDS011;40964;42.114;24.220;2023-02-01T13:24:38;1.13;;;0.85;;
55065;SDS011;40964;42.114;24.220;2023-02-01T13:27:12;1.05;;;0.90;;
55065;SDS011;40964;42.114;24.220;2023-02-01T13:29:41;0.77;;;0.77;;
55065;SDS011;40964;42.114;24.220;2023-02-01T13:40:44;2.38;;;1.10;;
55065;SDS011;40964;42.114;24.220;2023-02-01T13:43:15;1.17;;;1.08;;
55065;SDS011;40964;42.114;24.220;2023-02-01T13:45:50;0.90;;;0.90;;
55065;SDS011;40964;42.114;24.220;2023-02-01T13:48:21;2.95;;;1.27;;
55065;SDS011;40964;42.114;24.220;2023-02-01T13:50:57;1.75;;;1.15;;
55065;SDS011;40964;42.114;24.220;2023-02-01T13:53:28;2.80;;;2.25;;
55065;SDS011;40964;42.114;24.220;2023-02-01T13:56:01;1.58;;;1.33;;
55065;SDS011;40964;42.114;24.220;2023-02-01T13:58:32;2.58;;;1.50;;
55065;SDS011;40964;42.114;24.220;2023-02-01T14:03:48;1.25;;;1.10;;
55065;SDS011;40964;42.114;24.220;2023-02-01T14:06:15;1.35;;;1.05;;
55065;SDS011;40964;42.114;24.220;2023-02-01T14:09:10;1.20;;;0.77;;
55065;SDS011;40964;42.114;24.220;2023-02-01T14:16:43;2.72;;;0.95;;
55065;SDS011;40964;42.114;24.220;2023-02-01T14:19:32;2.55;;;1.75;;
55065;SDS011;40964;42.114;24.220;2023-02-01T14:22:00;0.95;;;0.80;;
55065;SDS011;40964;42.114;24.220;2023-02-01T14:24:44;2.15;;;1.20;;
55065;SDS011;40964;42.114;24.220;2023-02-01T14:27:18;3.53;;;1.50;;
55065;SDS011;40964;42.114;24.220;2023-02-01T14:29:52;3.63;;;1.60;;
55065;SDS011;40964;42.114;24.220;2023-02-01T14:32:41;2.70;;;1.50;;
55065;SDS011;40964;42.114;24.220;2023-02-01T14:50:17;2.20;;;1.67;;
55065;SDS011;40964;42.114;24.220;2023-02-01T15:00:53;10.02;;;3.88;;
55065;SDS011;40964;42.114;24.220;2023-02-01T15:03:28;2.90;;;1.67;;
55065;SDS011;40964;42.114;24.220;2023-02-01T15:06:12;26.98;;;8.30;;
55065;SDS011;40964;42.114;24.220;2023-02-01T15:08:48;4.45;;;2.55;;
55065;SDS011;40964;42.114;24.220;2023-02-01T15:11:17;2.75;;;1.40;;
55065;SDS011;40964;42.114;24.220;2023-02-01T15:13:50;8.25;;;1.40;;
55065;SDS011;40964;42.114;24.220;2023-02-01T15:16:18;4.82;;;2.72;;
55065;SDS011;40964;42.114;24.220;2023-02-01T15:18:44;2.53;;;1.75;;
55065;SDS011;40964;42.114;24.220;2023-02-01T15:23:44;6.20;;;1.85;;
55065;SDS011;40964;42.114;24.220;2023-02-01T15:26:26;0.70;;;0.70;;
55065;SDS011;40964;42.114;24.220;2023-02-01T15:28:53;1.15;;;0.95;;
55065;SDS011;40964;42.114;24.220;2023-02-01T15:31:30;1.30;;;1.00;;
55065;SDS011;40964;42.114;24.220;2023-02-01T15:33:58;2.92;;;0.95;;
55065;SDS011;40964;42.114;24.220;2023-02-01T15:36:23;2.28;;;1.27;;
55065;SDS011;40964;42.114;24.220;2023-02-01T15:41:45;2.83;;;1.58;;
55065;SDS011;40964;42.114;24.220;2023-02-01T15:47:07;11.45;;;5.07;;
55065;SDS011;40964;42.114;24.220;2023-02-01T15:49:40;13.48;;;4.03;;
55065;SDS011;40964;42.114;24.220;2023-02-01T15:52:21;32.05;;;10.35;;
55065;SDS011;40964;42.114;24.220;2023-02-01T15:54:50;13.35;;;5.88;;
55065;SDS011;40964;42.114;24.220;2023-02-01T15:57:22;8.15;;;4.22;;
55065;SDS011;40964;42.114;24.220;2023-02-01T15:59:57;5.47;;;3.38;;
55065;SDS011;40964;42.114;24.220;2023-02-01T16:05:04;11.82;;;4.55;;
55065;SDS011;40964;42.114;24.220;2023-02-01T16:07:55;8.75;;;3.72;;
55065;SDS011;40964;42.114;24.220;2023-02-01T16:10:28;3.72;;;2.20;;
55065;SDS011;40964;42.114;24.220;2023-02-01T16:12:54;2.88;;;1.70;;
55065;SDS011;40964;42.114;24.220;2023-02-01T16:15:23;3.70;;;1.60;;
55065;SDS011;40964;42.114;24.220;2023-02-01T16:17:49;3.40;;;1.83;;
55065;SDS011;40964;42.114;24.220;2023-02-01T16:20:14;10.02;;;3.53;;
55065;SDS011;40964;42.114;24.220;2023-02-01T16:22:40;9.07;;;4.10;;
55065;SDS011;40964;42.114;24.220;2023-02-01T16:25:06;6.05;;;3.20;;
55065;SDS011;40964;42.114;24.220;2023-02-01T16:27:31;27.50;;;13.57;;
55065;SDS011;40964;42.114;24.220;2023-02-01T16:29:57;9.57;;;5.45;;
55065;SDS011;40964;42.114;24.220;2023-02-01T16:32:22;5.50;;;3.20;;
55065;SDS011;40964;42.114;24.220;2023-02-01T16:34:48;11.65;;;6.15;;
55065;SDS011;40964;42.114;24.220;2023-02-01T16:37:15;16.05;;;8.02;;
55065;SDS011;40964;42.114;24.220;2023-02-01T16:39:47;17.20;;;9.13;;
55065;SDS011;40964;42.114;24.220;2023-02-01T16:42:13;42.63;;;17.52;;
55065;SDS011;40964;42.114;24.220;2023-02-01T16:44:40;24.85;;;9.25;;
55065;SDS011;40964;42.114;24.220;2023-02-01T16:47:17;9.35;;;4.65;;
55065;SDS011;40964;42.114;24.220;2023-02-01T16:49:45;13.43;;;6.75;;
55065;SDS011;40964;42.114;24.220;2023-02-01T16:52:18;26.17;;;8.70;;
55065;SDS011;40964;42.114;24.220;2023-02-01T16:54:47;9.82;;;4.53;;
55065;SDS011;40964;42.114;24.220;2023-02-01T16:57:16;14.70;;;5.85;;
55065;SDS011;40964;42.114;24.220;2023-02-01T16:59:43;19.88;;;7.38;;
55065;SDS011;40964;42.114;24.220;2023-02-01T17:02:13;21.38;;;9.57;;
55065;SDS011;40964;42.114;24.220;2023-02-01T17:04:40;14.68;;;8.25;;
55065;SDS011;40964;42.114;24.220;2023-02-01T17:07:06;13.38;;;6.07;;
55065;SDS011;40964;42.114;24.220;2023-02-01T17:09:37;14.45;;;6.70;;
55065;SDS011;40964;42.114;24.220;2023-02-01T17:12:04;16.15;;;7.15;;
55065;SDS011;40964;42.114;24.220;2023-02-01T17:14:30;17.30;;;7.15;;
55065;SDS011;40964;42.114;24.220;2023-02-01T17:16:59;16.70;;;8.07;;
55065;SDS011;40964;42.114;24.220;2023-02-01T17:19:25;24.38;;;10.25;;
55065;SDS011;40964;42.114;24.220;2023-02-01T17:21:52;14.18;;;5.43;;
55065;SDS011;40964;42.114;24.220;2023-02-01T17:24:24;8.45;;;4.40;;
55065;SDS011;40964;42.114;24.220;2023-02-01T17:26:52;3.38;;;2.97;;
55065;SDS011;40964;42.114;24.220;2023-02-01T17:29:18;24.55;;;8.60;;